createdAt,value
2023-05-15T00:01:59.616Z,14.35
2023-05-15T00:04:27.606Z,14.32
2023-05-15T00:06:55.739Z,14.32
2023-05-15T00:09:24.545Z,14.30
2023-05-15T00:11:54.048Z,14.27
2023-05-15T00:14:22.376Z,14.25
2023-05-15T00:16:51.022Z,14.23
2023-05-15T00:19:19.616Z,14.22
2023-05-15T00:21:48.027Z,14.19
2023-05-15T00:24:16.288Z,14.17
2023-05-15T00:26:44.306Z,14.15
2023-05-15T00:29:13.684Z,14.12
2023-05-15T00:31:42.159Z,14.11
2023-05-15T00:34:10.183Z,14.08
2023-05-15T00:36:38.837Z,14.05
2023-05-15T00:39:07.865Z,14.04
2023-05-15T00:41:37.118Z,14.01
2023-05-15T00:44:07.116Z,13.96
2023-05-15T00:46:36.564Z,13.93
2023-05-15T00:49:07.212Z,13.90
2023-05-15T00:51:35.519Z,13.87
2023-05-15T00:54:04.117Z,13.84
2023-05-15T00:56:33.892Z,13.80
2023-05-15T00:59:05.426Z,13.77
2023-05-15T01:01:34.841Z,13.73
2023-05-15T01:04:04.752Z,13.68
2023-05-15T01:06:32.894Z,13.64
2023-05-15T01:09:04.181Z,13.62
2023-05-15T01:11:38.530Z,13.61
2023-05-15T01:14:07.924Z,13.59
2023-05-15T01:16:36.531Z,13.56
2023-05-15T01:19:05.524Z,13.54
2023-05-15T01:21:36.427Z,13.54
2023-05-15T01:24:20.236Z,13.52
2023-05-15T01:27:14.580Z,13.49
2023-05-15T01:29:48.349Z,13.47
2023-05-15T01:32:30.127Z,13.43
2023-05-15T01:35:06.134Z,13.39
2023-05-15T01:37:37.054Z,13.35
2023-05-15T01:40:09.172Z,13.34
2023-05-15T01:42:41.826Z,13.31
2023-05-15T01:45:12.375Z,13.27
2023-05-15T01:47:44.877Z,13.24
2023-05-15T01:50:16.472Z,13.21
2023-05-15T01:52:53.953Z,13.19
2023-05-15T01:55:25.707Z,13.18
2023-05-15T01:57:57.096Z,13.15
2023-05-15T02:00:25.821Z,13.13
2023-05-15T02:02:54.878Z,13.11
2023-05-15T02:05:25.067Z,13.09
2023-05-15T02:07:54.006Z,13.06
2023-05-15T02:10:22.745Z,13.04
2023-05-15T02:12:51.713Z,13.02
2023-05-15T02:15:24.130Z,12.99
2023-05-15T02:17:52.654Z,12.97
2023-05-15T02:20:21.257Z,12.96
2023-05-15T02:22:49.344Z,12.95
2023-05-15T02:25:17.565Z,12.94
2023-05-15T02:27:56.445Z,12.94
2023-05-15T02:30:37.877Z,12.93
2023-05-15T02:33:13.077Z,12.93
2023-05-15T02:36:05.473Z,12.91
2023-05-15T02:38:46.847Z,12.89
2023-05-15T02:41:16.797Z,12.88
2023-05-15T02:43:48.323Z,12.88
2023-05-15T02:46:20.795Z,12.89
2023-05-15T02:48:51.857Z,12.92
2023-05-15T02:51:21.371Z,12.85
2023-05-15T02:53:49.911Z,12.80
2023-05-15T02:56:17.872Z,12.80
2023-05-15T02:58:46.171Z,12.80
2023-05-15T03:01:14.546Z,12.80
2023-05-15T03:03:42.841Z,12.82
2023-05-15T03:06:10.819Z,12.83
2023-05-15T03:08:38.788Z,12.86
2023-05-15T03:11:06.755Z,12.86
2023-05-15T03:13:34.850Z,12.87
2023-05-15T03:16:02.820Z,12.87
2023-05-15T03:18:31.025Z,12.87
2023-05-15T03:20:59.054Z,12.87
2023-05-15T03:23:27.552Z,12.89
2023-05-15T03:25:55.729Z,12.89
2023-05-15T03:28:23.766Z,12.90
2023-05-15T03:30:51.841Z,12.90
2023-05-15T03:33:19.855Z,12.91
2023-05-15T03:35:47.879Z,12.91
2023-05-15T03:38:16.209Z,12.90
2023-05-15T03:40:44.365Z,12.90
2023-05-15T03:43:13.486Z,12.91
2023-05-15T03:45:42.445Z,12.93
2023-05-15T03:48:10.575Z,13.00
2023-05-15T03:50:40.288Z,12.99
2023-05-15T03:53:08.232Z,12.93
2023-05-15T03:55:36.546Z,12.90
2023-05-15T03:58:04.463Z,12.95
2023-05-15T04:05:11.515Z,12.92
2023-05-15T04:07:40.217Z,12.89
2023-05-15T04:10:09.476Z,12.82
2023-05-15T04:12:37.703Z,12.81
2023-05-15T04:15:24.310Z,12.79
2023-05-15T04:17:54.060Z,12.73
2023-05-15T04:20:24.414Z,12.71
2023-05-15T04:22:53.152Z,12.72
2023-05-15T04:25:21.309Z,12.75
2023-05-15T04:27:49.480Z,12.77
2023-05-15T04:34:37.126Z,12.82
2023-05-15T04:37:05.131Z,12.81
2023-05-15T04:39:33.091Z,12.81
2023-05-15T04:42:01.078Z,12.82
2023-05-15T04:44:29.150Z,12.81
2023-05-15T04:46:57.300Z,12.81
2023-05-15T04:49:26.006Z,12.81
2023-05-15T04:51:53.867Z,12.81
2023-05-15T04:54:22.441Z,12.78
2023-05-15T04:56:50.390Z,12.68
2023-05-15T04:59:18.323Z,12.59
2023-05-15T05:01:46.260Z,12.57
2023-05-15T05:04:14.748Z,12.59
2023-05-15T05:06:42.900Z,12.56
2023-05-15T05:09:10.856Z,12.46
2023-05-15T05:11:43.548Z,12.39
2023-05-15T05:14:12.163Z,12.35
2023-05-15T05:16:41.012Z,12.29
2023-05-15T05:19:09.323Z,12.25
2023-05-15T05:21:37.298Z,12.25
2023-05-15T05:24:05.513Z,12.27
2023-05-15T05:26:33.541Z,12.34
2023-05-15T05:29:01.559Z,12.43
2023-05-15T05:31:30.810Z,12.49
2023-05-15T05:33:59.070Z,12.56
2023-05-15T05:36:27.099Z,12.62
2023-05-15T05:38:56.038Z,12.69
2023-05-15T05:41:23.995Z,12.78
2023-05-15T05:43:52.705Z,12.87
2023-05-15T05:46:21.006Z,12.95
2023-05-15T05:48:49.108Z,13.05
2023-05-15T05:51:17.476Z,13.14
2023-05-15T05:53:45.712Z,13.19
2023-05-15T05:56:13.748Z,13.22
2023-05-15T05:58:41.790Z,13.27
2023-05-15T06:01:10.124Z,13.29
2023-05-15T06:03:40.284Z,13.28
2023-05-15T06:06:08.953Z,13.25
2023-05-15T06:08:36.935Z,13.21
2023-05-15T06:11:06.655Z,13.15
2023-05-15T06:13:34.701Z,13.08
2023-05-15T06:16:02.674Z,13.02
2023-05-15T06:18:34.510Z,12.93
2023-05-15T06:21:02.492Z,12.88
2023-05-15T06:23:30.669Z,12.83
2023-05-15T06:26:02.529Z,12.76
2023-05-15T06:28:30.959Z,12.74
2023-05-15T06:30:58.989Z,12.70
2023-05-15T06:33:28.381Z,12.64
2023-05-15T06:35:56.947Z,12.55
2023-05-15T06:38:24.971Z,12.47
2023-05-15T06:40:52.918Z,12.40
2023-05-15T06:43:20.810Z,12.35
2023-05-15T06:45:50.014Z,12.29
2023-05-15T06:48:18.193Z,12.21
2023-05-15T06:50:46.155Z,12.15
2023-05-15T06:53:14.778Z,12.09
2023-05-15T06:55:43.090Z,12.04
2023-05-15T06:58:11.234Z,12.00
2023-05-15T07:00:40.307Z,11.97
2023-05-15T07:03:08.256Z,11.93
2023-05-15T07:05:36.234Z,11.92
2023-05-15T07:08:04.185Z,11.91
2023-05-15T07:10:32.173Z,11.91
2023-05-15T07:13:00.268Z,11.97
2023-05-15T07:15:28.811Z,12.03
2023-05-15T07:17:57.072Z,12.07
2023-05-15T07:20:28.212Z,12.10
2023-05-15T07:22:57.729Z,12.14
2023-05-15T07:25:27.881Z,12.16
2023-05-15T07:27:56.372Z,12.14
2023-05-15T07:30:25.550Z,12.14
2023-05-15T07:32:53.624Z,12.12
2023-05-15T07:35:21.661Z,12.15
2023-05-15T07:37:49.638Z,12.16
2023-05-15T07:40:17.574Z,12.14
2023-05-15T07:42:45.770Z,12.17
2023-05-15T07:45:14.419Z,12.17
2023-05-15T07:47:47.253Z,12.20
2023-05-15T07:50:16.481Z,12.21
2023-05-15T07:52:44.775Z,12.26
2023-05-15T07:55:13.734Z,12.35
2023-05-15T07:57:42.184Z,12.45
2023-05-15T08:00:13.022Z,12.55
2023-05-15T08:02:42.755Z,12.57
2023-05-15T08:05:10.735Z,12.58
2023-05-15T08:07:38.829Z,12.59
2023-05-15T08:10:07.984Z,12.53
2023-05-15T08:12:36.036Z,12.51
2023-05-15T08:15:04.692Z,12.50
2023-05-15T08:17:32.602Z,12.54
2023-05-15T08:20:00.668Z,12.56
2023-05-15T08:22:30.397Z,12.55
2023-05-15T08:25:01.313Z,12.49
2023-05-15T08:27:29.525Z,12.40
2023-05-15T08:29:57.681Z,12.41
2023-05-15T08:32:26.041Z,12.41
2023-05-15T08:34:54.076Z,12.38
2023-05-15T08:37:22.029Z,12.38
2023-05-15T08:39:50.653Z,12.30
2023-05-15T08:42:28.305Z,12.25
2023-05-15T08:44:56.656Z,12.21
2023-05-15T08:47:28.339Z,12.21
2023-05-15T08:50:04.938Z,12.16
2023-05-15T08:52:34.171Z,12.14
2023-05-15T08:55:03.327Z,12.14
2023-05-15T08:57:33.532Z,12.17
2023-05-15T09:00:02.845Z,12.21
2023-05-15T09:02:31.422Z,12.25
2023-05-15T09:04:59.568Z,12.25
2023-05-15T09:07:27.758Z,12.26
2023-05-15T09:09:57.709Z,12.28
2023-05-15T09:12:27.176Z,12.34
2023-05-15T09:15:30.670Z,12.44
2023-05-15T09:17:59.333Z,12.47
2023-05-15T09:20:38.009Z,12.47
2023-05-15T09:23:21.821Z,12.45
2023-05-15T09:25:53.747Z,12.44
2023-05-15T09:28:33.349Z,12.46
2023-05-15T09:31:03.643Z,12.49
2023-05-15T09:33:33.892Z,12.54
2023-05-15T09:36:06.805Z,12.54
2023-05-15T09:38:43.769Z,12.51
2023-05-15T09:41:11.879Z,12.49
2023-05-15T09:44:06.035Z,12.52
2023-05-15T09:46:36.824Z,12.57
2023-05-15T09:49:04.899Z,12.64
2023-05-15T09:51:34.565Z,12.73
2023-05-15T09:54:02.753Z,12.71
2023-05-15T09:56:32.747Z,12.64
2023-05-15T09:59:00.812Z,12.62
2023-05-15T10:01:28.936Z,12.59
2023-05-15T10:04:03.271Z,12.54
2023-05-15T10:06:43.115Z,12.48
2023-05-15T10:09:13.138Z,12.42
2023-05-15T10:11:43.660Z,12.37
2023-05-15T10:14:13.545Z,12.36
2023-05-15T10:16:42.460Z,12.35
2023-05-15T10:19:11.916Z,12.35
2023-05-15T10:21:42.111Z,12.32
2023-05-15T10:24:11.754Z,12.35
2023-05-15T10:26:41.765Z,12.30
2023-05-15T10:29:15.236Z,12.30
2023-05-15T10:31:44.008Z,12.27
2023-05-15T10:34:13.612Z,12.29
2023-05-15T10:36:43.104Z,12.25
2023-05-15T10:39:11.925Z,12.28
2023-05-15T10:41:41.197Z,12.34
2023-05-15T10:44:10.171Z,12.38
2023-05-15T10:46:38.493Z,12.34
2023-05-15T10:49:07.120Z,12.29
2023-05-15T10:51:37.736Z,12.29
2023-05-15T10:54:06.006Z,12.35
2023-05-15T10:56:37.062Z,12.38
2023-05-15T10:59:08.301Z,12.37
2023-05-15T11:05:03.035Z,12.33
2023-05-15T11:07:29.653Z,12.35
2023-05-15T11:09:56.653Z,12.43
2023-05-15T11:12:24.315Z,12.41
2023-05-15T11:14:56.543Z,12.38
2023-05-15T11:17:23.364Z,12.35
2023-05-15T11:19:50.161Z,12.30
2023-05-15T11:22:33.128Z,12.32
2023-05-15T11:25:05.258Z,12.26
2023-05-15T11:27:37.275Z,12.26
2023-05-15T11:30:11.007Z,12.21
2023-05-15T11:32:45.396Z,12.22
2023-05-15T11:35:29.274Z,12.19
2023-05-15T11:38:02.668Z,12.21
2023-05-15T11:40:45.937Z,12.23
2023-05-15T11:43:24.137Z,12.26
2023-05-15T11:45:52.542Z,12.25
2023-05-15T11:48:19.463Z,12.34
2023-05-15T11:50:46.282Z,12.36
2023-05-15T11:53:13.983Z,12.46
2023-05-15T11:55:43.068Z,12.46
2023-05-15T11:58:18.354Z,12.50
2023-05-15T12:00:46.941Z,12.51
2023-05-15T12:03:24.392Z,12.56
2023-05-15T12:05:58.880Z,12.51
2023-05-15T12:08:32.791Z,12.52
2023-05-15T12:11:01.337Z,12.54
2023-05-15T12:13:30.390Z,12.57
2023-05-15T12:15:57.746Z,12.49
2023-05-15T12:18:24.565Z,12.47
2023-05-15T12:20:52.486Z,12.47
2023-05-15T12:23:21.724Z,12.48
2023-05-15T12:25:54.319Z,12.45
2023-05-15T12:28:21.602Z,12.48
2023-05-15T12:30:49.266Z,12.48
2023-05-15T12:33:16.470Z,12.48
2023-05-15T12:35:48.964Z,12.52
2023-05-15T12:38:16.049Z,12.60
2023-05-15T12:40:44.281Z,12.59
2023-05-15T12:43:11.042Z,12.67
2023-05-15T12:45:39.004Z,12.74
2023-05-15T12:48:07.272Z,12.73
2023-05-15T12:50:35.114Z,12.70
2023-05-15T12:53:04.589Z,12.71
2023-05-15T12:55:33.602Z,12.73
2023-05-15T12:58:06.442Z,12.72
2023-05-15T13:00:35.368Z,12.71
2023-05-15T13:03:03.104Z,12.72
2023-05-15T13:05:34.358Z,12.71
2023-05-15T13:08:03.604Z,12.68
2023-05-15T13:10:34.585Z,12.62
2023-05-15T13:13:01.232Z,12.62
2023-05-15T13:15:34.742Z,12.64
2023-05-15T13:18:03.808Z,12.63
2023-05-15T13:20:39.355Z,12.70
2023-05-15T13:23:07.199Z,12.70
2023-05-15T13:25:35.198Z,12.73
2023-05-15T13:28:04.686Z,12.80
2023-05-15T13:30:33.669Z,12.86
2023-05-15T13:33:01.454Z,12.89
2023-05-15T13:35:28.681Z,12.93
2023-05-15T13:37:56.139Z,12.94
2023-05-15T13:40:22.857Z,12.98
2023-05-15T13:42:49.772Z,12.99
2023-05-15T13:45:16.887Z,13.03
2023-05-15T13:47:44.390Z,13.05
2023-05-15T13:50:15.434Z,13.14
2023-05-15T13:52:43.780Z,13.29
2023-05-15T13:55:10.914Z,13.44
2023-05-15T13:57:38.906Z,13.57
2023-05-15T14:00:15.291Z,13.70
2023-05-15T14:02:43.640Z,13.73
2023-05-15T14:05:14.010Z,13.82
2023-05-15T14:07:42.132Z,13.84
2023-05-15T14:10:09.963Z,13.87
2023-05-15T14:12:37.167Z,13.91
2023-05-15T14:15:04.409Z,13.97
2023-05-15T14:17:31.746Z,14.05
2023-05-15T14:19:58.472Z,14.15
2023-05-15T14:22:25.239Z,14.25
2023-05-15T14:24:52.897Z,14.27
2023-05-15T14:27:20.206Z,14.24
2023-05-15T14:29:48.376Z,14.20
2023-05-15T14:32:15.779Z,14.22
2023-05-15T14:34:42.300Z,14.21
2023-05-15T14:37:08.855Z,14.17
2023-05-15T14:39:35.359Z,14.23
2023-05-15T14:42:02.019Z,14.29
2023-05-15T14:44:28.463Z,14.38
2023-05-15T14:47:06.270Z,14.46
2023-05-15T14:49:34.024Z,14.53
2023-05-15T14:52:00.770Z,14.62
2023-05-15T14:54:27.746Z,14.67
2023-05-15T14:56:56.341Z,14.75
2023-05-15T14:59:26.308Z,14.81
2023-05-15T15:01:53.750Z,14.80
2023-05-15T15:04:20.460Z,14.85
2023-05-15T15:06:47.651Z,14.87
2023-05-15T15:09:15.341Z,14.93
2023-05-15T15:11:43.542Z,15.13
2023-05-15T15:14:10.165Z,15.32
2023-05-15T15:16:36.921Z,15.51
2023-05-15T15:19:03.700Z,15.67
2023-05-15T15:21:31.158Z,15.69
2023-05-15T15:23:58.360Z,15.63
2023-05-15T15:26:25.267Z,15.71
2023-05-15T15:28:51.948Z,15.78
2023-05-15T15:31:19.856Z,15.82
2023-05-15T15:33:47.895Z,15.79
2023-05-15T15:36:14.619Z,15.68
2023-05-15T15:38:43.349Z,15.60
2023-05-15T15:41:10.080Z,15.55
2023-05-15T15:43:36.786Z,15.55
2023-05-15T15:46:03.899Z,15.48
2023-05-15T15:48:30.657Z,15.42
2023-05-15T15:50:57.330Z,15.38
2023-05-15T15:53:25.944Z,15.33
2023-05-15T15:55:53.304Z,15.34
2023-05-15T15:58:19.981Z,15.34
2023-05-15T16:00:46.647Z,15.32
2023-05-15T16:03:14.828Z,15.44
2023-05-15T16:05:42.158Z,15.50
2023-05-15T16:08:08.767Z,15.47
2023-05-15T16:10:35.694Z,15.42
2023-05-15T16:13:02.335Z,15.38
2023-05-15T16:15:28.976Z,15.36
2023-05-15T16:17:56.377Z,15.36
2023-05-15T16:20:23.370Z,15.41
2023-05-15T16:22:50.157Z,15.34
2023-05-15T16:25:16.780Z,15.27
2023-05-15T16:27:43.753Z,15.17
2023-05-15T16:30:11.031Z,15.10
2023-05-15T16:32:37.787Z,15.04
2023-05-15T16:35:05.255Z,14.99
2023-05-15T16:37:32.007Z,14.95
2023-05-15T16:39:58.698Z,14.90
2023-05-15T16:42:25.256Z,14.87
2023-05-15T16:44:52.025Z,14.83
2023-05-15T16:47:18.584Z,14.79
2023-05-15T16:49:46.413Z,14.72
2023-05-15T16:52:15.217Z,14.69
2023-05-15T16:54:41.962Z,14.65
2023-05-15T16:57:08.659Z,14.59
2023-05-15T16:59:35.224Z,14.57
2023-05-15T17:02:02.206Z,14.51
2023-05-15T17:04:32.742Z,14.47
2023-05-15T17:06:59.765Z,14.46
2023-05-15T17:09:26.854Z,14.43
2023-05-15T17:11:54.922Z,14.41
2023-05-15T17:14:22.118Z,14.36
2023-05-15T17:16:48.651Z,14.37
2023-05-15T17:19:15.569Z,14.37
2023-05-15T17:21:44.824Z,14.33
2023-05-15T17:24:11.665Z,14.28
2023-05-15T17:26:38.253Z,14.30
2023-05-15T17:29:04.750Z,14.27
2023-05-15T17:31:33.683Z,14.22
2023-05-15T17:34:00.618Z,14.19
2023-05-15T17:36:27.234Z,14.14
2023-05-15T17:38:53.684Z,14.15
2023-05-15T17:41:21.466Z,14.09
2023-05-15T17:43:48.776Z,14.04
2023-05-15T17:46:15.476Z,14.02
2023-05-15T17:48:42.111Z,13.97
2023-05-15T17:51:08.776Z,13.95
2023-05-15T17:53:35.424Z,13.91
2023-05-15T17:56:03.040Z,13.88
2023-05-15T17:58:30.205Z,13.84
2023-05-15T18:00:56.675Z,13.82
2023-05-15T18:03:23.679Z,13.79
2023-05-15T18:05:52.199Z,13.74
2023-05-15T18:08:18.885Z,13.73
2023-05-15T18:10:45.875Z,13.66
2023-05-15T18:13:13.020Z,13.59
2023-05-15T18:15:40.010Z,13.59
2023-05-15T18:18:06.779Z,13.54
2023-05-15T18:20:33.443Z,13.48
2023-05-15T18:23:00.035Z,13.39
2023-05-15T18:25:26.916Z,13.38
2023-05-15T18:27:53.759Z,13.27
2023-05-15T18:30:20.422Z,13.12
2023-05-15T18:32:47.003Z,12.91
2023-05-15T18:35:14.305Z,12.77
2023-05-15T18:37:41.373Z,12.59
2023-05-15T18:40:08.820Z,12.38
2023-05-15T18:42:35.687Z,12.21
2023-05-15T18:45:02.561Z,12.04
2023-05-15T18:47:29.086Z,11.90
2023-05-15T18:49:56.462Z,11.77
2023-05-15T18:52:23.257Z,11.69
2023-05-15T18:54:51.607Z,11.61
2023-05-15T18:57:18.422Z,11.57
2023-05-15T18:59:45.055Z,11.53
2023-05-15T19:04:37.253Z,11.43
2023-05-15T19:07:05.810Z,11.36
2023-05-15T19:09:34.090Z,11.34
2023-05-15T19:12:02.729Z,11.29
2023-05-15T19:14:30.851Z,11.25
2023-05-15T19:16:58.890Z,11.23
2023-05-15T19:19:27.928Z,11.19
2023-05-15T19:21:56.065Z,11.19
2023-05-15T19:24:24.981Z,11.18
2023-05-15T19:26:52.938Z,11.20
2023-05-15T19:29:21.189Z,11.18
2023-05-15T19:31:52.019Z,11.18
2023-05-15T19:34:21.296Z,11.18
2023-05-15T19:36:50.784Z,11.17
2023-05-15T19:39:18.893Z,11.17
2023-05-15T19:41:47.049Z,11.15
2023-05-15T19:44:14.884Z,11.13
2023-05-15T19:46:42.830Z,11.09
2023-05-15T19:49:10.912Z,11.05
2023-05-15T19:51:41.171Z,11.03
2023-05-15T19:54:09.931Z,11.00
2023-05-15T19:56:37.952Z,10.96
2023-05-15T19:59:06.007Z,10.89
2023-05-15T20:01:34.183Z,10.88
2023-05-15T20:04:02.698Z,10.89
2023-05-15T20:06:30.802Z,10.88
2023-05-15T20:08:59.603Z,10.83
2023-05-15T20:11:28.031Z,10.78
2023-05-15T20:13:56.153Z,10.73
2023-05-15T20:16:24.068Z,10.72
2023-05-15T20:18:55.215Z,10.73
2023-05-15T20:21:23.199Z,10.72
2023-05-15T20:23:51.298Z,10.70
2023-05-15T20:26:20.194Z,10.70
2023-05-15T20:28:48.132Z,10.67
2023-05-15T20:31:17.224Z,10.64
2023-05-15T20:33:45.791Z,10.61
2023-05-15T20:36:16.714Z,10.60
2023-05-15T20:38:45.623Z,10.59
2023-05-15T20:41:14.506Z,10.61
2023-05-15T20:43:43.327Z,10.59
2023-05-15T20:46:12.815Z,10.58
2023-05-15T20:48:41.005Z,10.57
2023-05-15T20:51:09.087Z,10.60
2023-05-15T20:53:37.144Z,10.63
2023-05-15T20:56:05.313Z,10.65
2023-05-15T20:58:33.695Z,10.74
2023-05-15T21:01:01.708Z,10.77
2023-05-15T21:03:29.924Z,10.79
2023-05-15T21:05:57.969Z,10.80
2023-05-15T21:08:27.773Z,10.84
2023-05-15T21:10:56.621Z,10.90
2023-05-15T21:13:25.725Z,10.94
2023-05-15T21:15:54.078Z,10.97
2023-05-15T21:18:22.263Z,10.97
2023-05-15T21:20:50.601Z,11.00
2023-05-15T21:23:20.935Z,11.03
2023-05-15T21:25:48.896Z,11.06
2023-05-15T21:28:16.786Z,11.08
2023-05-15T21:30:44.843Z,11.10
2023-05-15T21:33:15.130Z,11.09
2023-05-15T21:35:45.401Z,11.13
2023-05-15T21:38:13.338Z,11.14
2023-05-15T21:40:41.517Z,11.15
2023-05-15T21:43:09.761Z,11.14
2023-05-15T21:45:37.768Z,11.09
2023-05-15T21:48:05.883Z,11.06
2023-05-15T21:50:33.857Z,11.06
2023-05-15T21:53:02.316Z,11.04
2023-05-15T21:55:30.295Z,11.01
2023-05-15T21:57:58.286Z,10.97
2023-05-15T22:00:26.909Z,10.94
2023-05-15T22:02:55.132Z,10.91
2023-05-15T22:05:24.061Z,10.87
2023-05-15T22:07:51.964Z,10.83
2023-05-15T22:10:19.910Z,10.79
2023-05-15T22:12:48.188Z,10.77
2023-05-15T22:15:16.970Z,10.75
2023-05-15T22:17:45.023Z,10.74
2023-05-15T22:20:13.816Z,10.70
2023-05-15T22:22:43.063Z,10.69
2023-05-15T22:25:11.225Z,10.69
2023-05-15T22:27:41.306Z,10.64
2023-05-15T22:30:09.532Z,10.65
2023-05-15T22:32:37.620Z,10.62
2023-05-15T22:35:06.120Z,10.59
2023-05-15T22:37:34.804Z,10.55
2023-05-15T22:40:02.803Z,10.54
2023-05-15T22:42:30.713Z,10.53
2023-05-15T22:44:59.081Z,10.50
2023-05-15T22:47:30.168Z,10.49
2023-05-15T22:49:58.380Z,10.48
2023-05-15T22:52:26.464Z,10.45
2023-05-15T22:54:54.694Z,10.44
2023-05-15T22:57:24.357Z,10.40
2023-05-15T22:59:52.840Z,10.38
2023-05-15T23:02:20.702Z,10.36
2023-05-15T23:04:48.654Z,10.32
2023-05-15T23:07:17.411Z,10.31
2023-05-15T23:09:45.585Z,10.28
2023-05-15T23:12:13.549Z,10.24
2023-05-15T23:14:41.452Z,10.21
2023-05-15T23:17:09.450Z,10.20
2023-05-15T23:19:37.462Z,10.18
2023-05-15T23:22:05.642Z,10.15
2023-05-15T23:24:33.977Z,10.15
2023-05-15T23:27:02.425Z,10.15
2023-05-15T23:29:30.346Z,10.13
2023-05-15T23:31:58.326Z,10.14
2023-05-15T23:34:26.566Z,10.14
2023-05-15T23:36:54.426Z,10.17
2023-05-15T23:39:22.296Z,10.17
2023-05-15T23:41:50.577Z,10.20
2023-05-15T23:44:18.925Z,10.20
2023-05-15T23:46:47.074Z,10.23
2023-05-15T23:49:16.391Z,10.23
2023-05-15T23:51:44.461Z,10.25
2023-05-15T23:54:12.366Z,10.27
2023-05-15T23:56:40.435Z,10.29
2023-05-15T23:59:08.478Z,10.31
